ROMMA est une association bénévole à but non lucratif. Votre soutien est indispensable : ADHERER à ROMMA ou FAIRE un DON

Pinsot - (38, Isère)

Vallée du Haut Bréda (750 m)   Longitude: 06° 06' E   Latitude: 45° 21' N Station partenaire n°101
 

Détail journalier du     <<     >>

Température Precipitation Humidité Pression Vent Dir Rafale Dir. rafale Ensol.
Heure (°C) (mm) (%) (hPa) (km/h) (km/h) (min)
01:00 -0.609210323SSO13S0
02:00 -1.209310321SSO8SSO0
03:00 -1.1093103206SSO0
04:00 -1.0092103202S0
05:00 -1.4093103108SSO0
06:00 -1.709310312SSO8SSO0
07:00 -1.809310314SSO11SO0
08:00 -1.309310324SSO8SSO0
09:00 0.109110326SSO11SSO0
10:00 0.409210321SSO8SSO0
11:00 2.008810322SSO10SO0
12:00 3.4085103206SO0
13:00 3.608610311N10N5
14:00 4.108510315N16NNO54
15:00 3.508810308N21NNE48
16:00 3.308910303NNE16N0
17:00 3.108910303NE15N0
18:00 2.60911030000
19:00 2.40911031000
20:00 2.3088103102NE0
21:00 2.1089103105ENE0
22:00 1.9091103102ENE0
23:00 1.9089103008SSE0
minuit 1.9087103005SSO0

Graphique du 01-01-2019

 

Serveur OMMA